ADDS METAR Data INFO
IDs: Format: Raw Decoded Include TAF

Data at: 0442 UTC 24 Apr 2018

KRIW 240353Z AUTO 03021G26KT 10SM OVC060 01/M04 A3036 RMK AO2 PK WND 03026/0350 SLP290 T00111044
KRIW 240253Z AUTO 03014G20KT 10SM OVC060 02/M03 A3035 RMK AO2 SLP281 60000 T00171033 53020
KRIW 240153Z AUTO 03009KT 10SM OVC055 02/M03 A3031 RMK AO2 SNE01 SLP266 P0000 T00221033
KRIW 240053Z AUTO 02014G24KT 4SM -SN FEW013 OVC046 01/M02 A3027 RMK AO2 PK WND 35027/0015 SLP256 P0000 T00111017
KRIW 240048Z AUTO 01018KT 3SM -SN SCT013 OVC046 01/M02 A3028 RMK AO2 PK WND 35027/0015 P0000
KRIW 240040Z AUTO 01018G24KT 3SM -SN BKN013 OVC047 02/M02 A3027 RMK AO2 PK WND 35027/0015 P0000 T00171017
KRIW 240018Z AUTO 01014G27KT 1 3/4SM -SN OVC017 02/M02 A3027 RMK AO2 PK WND 35027/0015 P0000 T00171017
KRIW 240009Z AUTO 02011KT 6SM -SN OVC017 02/M02 A3027 RMK AO2 P0000 T00221017
KRIW 240001Z AUTO 01014KT 2SM -SN OVC015 02/M02 A3026 RMK AO2 P0000 T00221017
KRIW 232353Z AUTO 02019G25KT 1 1/4SM -SN OVC013 02/M02 A3026 RMK AO2 PK WND 02032/2254 SNB27 SLP249 P0000 60000 T00171017 10067 20017 53025
KRIW 232346Z AUTO 02015G24KT 1 3/4SM -SN OVC015 02/M02 A3026 RMK AO2 PK WND 02032/2254 SNB27 P0000 T00221017
KRIW 232319Z AUTO 01019G27KT 10SM FEW017 BKN026 OVC035 03/M03 A3024 RMK AO2 PK WND 02032/2254 T00331028
KRIW 232253Z AUTO 01023G32KT 10SM FEW025 BKN036 OVC047 04/M03 A3022 RMK AO2 PK WND 02035/2214 SLP229 T00391028
KRIW 232153Z AUTO 01023G34KT 10SM OVC037 04/M02 A3020 RMK AO2 PK WND 01034/2148 SLP224 T00391022
KRIW 232053Z AUTO 02026G31KT 10SM OVC036 06/M01 A3018 RMK AO2 PK WND 02032/2042 SLP214 T00561011 53011
KRIW 232026Z AUTO 02021G29KT 10SM OVC030 06/M01 A3016 RMK AO2 PK WND 02029/2024 T00611006
KRIW 231953Z AUTO 02022G29KT 10SM OVC027 06/M01 A3015 RMK AO2 PK WND 01029/1945 SLP198 T00561006
KRIW 231853Z AUTO 03018G22KT 10SM OVC027 06/00 A3014 RMK AO2 SLP190 T00560000
KRIW 231753Z AUTO 02013KT 10SM SCT011 OVC029 04/02 A3014 RMK AO2 SLP188 60001 T00440017 10072 20039 53008
KRIW 231718Z AUTO 03008KT 10SM FEW009 OVC031 05/03 A3013 RMK AO2 T00500028
KRIW 231653Z AUTO 01009KT 10SM BKN031 OVC041 04/02 A3012 RMK AO2 RAE21 SLP187 P0001 T00440022
KRIW 231625Z AUTO 01010KT 10SM SCT029 BKN055 OVC110 04/02 A3012 RMK AO2 RAE21 PRESRR P0001 T00390022
KRIW 231618Z AUTO 03012KT 10SM -RA BKN029 OVC100 04/02 A3010 RMK AO2 P0001 T00390022
KRIW 231553Z AUTO 01010KT 10SM -RA OVC036 05/02 A3012 RMK AO2 PK WND 34027/1455 RAB1455 SLP174 P0000 T00500017
KRIW 231453Z AUTO 35018KT 10SM SCT050 BKN060 OVC080 06/M01 A3011 RMK AO2 PK WND 36029/1437 SLP168 T00611011 53040
KRIW 231353Z AUTO 01015G22KT 10SM OVC100 07/M02 A3004 RMK AO2 SLP138 T00671022
KRIW 231253Z AUTO 34011KT 10SM CLR 07/M02 A3002 RMK AO2 SLP124 T00671022
KRIW 231153Z AUTO 02010KT 10SM FEW120 07/M01 A2997 RMK AO2 SLP106 T00671011 10117 20033 50005
KRIW 231053Z AUTO 04007KT 10SM SCT110 07/M01 A2998 RMK AO2 SLP108 T00721006
KRIW 230953Z AUTO 01007KT 10SM FEW120 06/M02 A2996 RMK AO2 SLP102 T00611017
KRIW 230853Z AUTO 33006KT 10SM CLR 05/M01 A2995 RMK AO2 SLP106 T00501011 57007
KRIW 230753Z AUTO 04005KT 10SM OVC120 08/00 A2996 RMK AO2 SLP103 T00830000
KRIW 230653Z AUTO 03012KT 10SM CLR 10/00 A2997 RMK AO2 SLP104 T01000000 402170028
KRIW 230553Z AUTO 01007KT 10SM CLR 12/M01 A2998 RMK AO2 SLP108 T01171011 10211 20094 50000
KRIW 230453Z AUTO 32010KT 10SM SCT120 10/M03 A2999 RMK AO2 SLP121 T01001028
KRIW 230353Z AUTO 09004KT 10SM FEW120 15/M05 A2998 RMK AO2 SLP115 T01501050
KRIW 230253Z AUTO 08006KT 10SM CLR 15/M05 A2998 RMK AO2 SLP117 T01501050 55003
KRIW 230153Z AUTO 07006KT 10SM CLR 16/M04 A2997 RMK AO2 SLP114 T01611039
KRIW 230053Z AUTO 00000KT 10SM CLR 20/M04 A2998 RMK AO2 SLP115 T02001039
KRIW 222353Z AUTO 16005KT 10SM CLR 21/M04 A2999 RMK AO2 SLP114 T02111039 10217 20161 56015
KRIW 222253Z AUTO VRB05KT 10SM CLR 21/M04 A3000 RMK AO2 SLP117 T02061039
KRIW 222153Z AUTO 07007KT 10SM CLR 21/M03 A3002 RMK AO2 SLP121 T02111033
KRIW 222053Z AUTO VRB03KT 10SM CLR 19/M03 A3004 RMK AO2 SLP135 T01891033 58021 $
KRIW 221953Z AUTO 08007KT 030V110 10SM CLR 19/M03 A3007 RMK AO2 SLP140 T01891028 $
KRIW 221853Z AUTO 13005KT 10SM CLR 18/M02 A3009 RMK AO2 SLP146 T01781017 $
KRIW 221753Z AUTO 05007KT 10SM CLR 16/M01 A3011 RMK AO2 SLP156 T01611006 10161 20028 58012 $
KRIW 221653Z AUTO 08009KT 10SM CLR 13/M01 A3013 RMK AO2 SLP168 T01331011 $